createdAt,value
2018-09-19T00:01:15.772Z,17.20
2018-09-19T00:03:44.050Z,17.20
2018-09-19T00:06:12.334Z,17.10
2018-09-19T00:08:40.590Z,17.10
2018-09-19T00:11:09.022Z,17.10
2018-09-19T00:13:37.359Z,17.00
2018-09-19T00:16:05.713Z,16.90
2018-09-19T00:18:34.101Z,16.90
2018-09-19T00:21:02.399Z,16.80
2018-09-19T00:23:30.650Z,16.80
2018-09-19T00:25:58.905Z,16.70
2018-09-19T00:28:27.181Z,16.70
2018-09-19T00:30:55.403Z,16.70
2018-09-19T00:33:23.656Z,16.70
2018-09-19T00:35:51.897Z,16.60
2018-09-19T00:38:20.125Z,16.60
2018-09-19T00:40:48.386Z,16.50
2018-09-19T00:43:16.634Z,16.50
2018-09-19T00:45:44.853Z,16.40
2018-09-19T00:48:14.144Z,16.40
2018-09-19T00:50:42.405Z,16.40
2018-09-19T00:53:10.644Z,16.30
2018-09-19T00:55:38.877Z,16.30
2018-09-19T00:58:07.102Z,16.30
2018-09-19T01:00:35.313Z,16.20
2018-09-19T01:03:03.675Z,16.20
2018-09-19T01:05:31.973Z,16.20
2018-09-19T01:08:00.216Z,16.20
2018-09-19T01:10:28.424Z,16.20
2018-09-19T01:12:56.682Z,16.10
2018-09-19T01:15:24.921Z,16.10
2018-09-19T01:17:53.172Z,16.10
2018-09-19T01:20:21.404Z,16.00
2018-09-19T01:22:49.624Z,16.00
2018-09-19T01:25:17.873Z,15.90
2018-09-19T01:27:46.169Z,15.90
2018-09-19T01:30:14.520Z,15.90
2018-09-19T01:32:42.764Z,15.90
2018-09-19T01:35:11.015Z,15.80
2018-09-19T01:37:39.241Z,15.80
2018-09-19T01:40:07.494Z,15.80
2018-09-19T01:42:35.717Z,15.80
2018-09-19T01:45:04.015Z,15.80
2018-09-19T01:47:32.242Z,15.70
2018-09-19T01:50:00.509Z,15.70
2018-09-19T01:52:28.740Z,15.70
2018-09-19T01:54:56.995Z,15.70
2018-09-19T01:57:25.222Z,15.70
2018-09-19T01:59:53.466Z,15.60
2018-09-19T02:02:21.740Z,15.60
2018-09-19T02:04:49.966Z,15.60
2018-09-19T02:07:18.178Z,15.60
2018-09-19T02:09:46.409Z,15.50
2018-09-19T02:12:14.934Z,15.50
2018-09-19T02:14:43.276Z,15.50
2018-09-19T02:17:11.521Z,15.50
2018-09-19T02:19:39.745Z,15.50
2018-09-19T02:22:07.969Z,15.50
2018-09-19T02:24:36.299Z,15.50
2018-09-19T02:27:04.529Z,15.40
2018-09-19T02:29:32.760Z,15.40
2018-09-19T02:32:00.989Z,15.40
2018-09-19T02:34:29.222Z,15.40
2018-09-19T02:36:57.446Z,15.40
2018-09-19T02:39:25.694Z,15.40
2018-09-19T02:41:53.931Z,15.40
2018-09-19T02:44:22.174Z,15.30
2018-09-19T02:46:50.408Z,15.30
2018-09-19T02:49:18.743Z,15.30
2018-09-19T02:51:47.165Z,15.30
2018-09-19T02:54:15.699Z,15.30
2018-09-19T02:56:43.925Z,15.30
2018-09-19T02:59:12.194Z,15.30
2018-09-19T03:01:40.447Z,15.30
2018-09-19T03:04:08.707Z,15.20
2018-09-19T03:06:36.934Z,15.20
2018-09-19T03:09:06.329Z,15.20
2018-09-19T03:11:34.597Z,15.20
2018-09-19T03:14:02.876Z,15.20
2018-09-19T03:16:31.141Z,15.20
2018-09-19T03:18:59.384Z,15.20
2018-09-19T03:21:27.645Z,15.20
2018-09-19T03:23:55.885Z,15.10
2018-09-19T03:26:24.138Z,15.10
2018-09-19T03:28:52.383Z,15.10
2018-09-19T03:31:41.193Z,15.00
2018-09-19T03:34:09.515Z,15.00
2018-09-19T03:36:37.745Z,15.00
2018-09-19T03:39:08.263Z,15.00
2018-09-19T03:41:36.524Z,15.00
2018-09-19T03:44:05.050Z,15.00
2018-09-19T03:46:33.302Z,15.00
2018-09-19T03:49:01.570Z,15.00
2018-09-19T03:51:29.793Z,15.00
2018-09-19T03:53:58.015Z,15.00
2018-09-19T03:56:26.262Z,15.00
2018-09-19T03:58:54.481Z,15.00
2018-09-19T04:01:22.762Z,15.00
2018-09-19T04:03:51.021Z,15.00
2018-09-19T04:06:19.331Z,15.00
2018-09-19T04:08:47.618Z,14.90
2018-09-19T04:11:16.009Z,14.90
2018-09-19T04:13:44.253Z,14.90
2018-09-19T04:16:12.483Z,14.90
2018-09-19T04:18:40.781Z,14.90
2018-09-19T04:21:09.044Z,14.90
2018-09-19T04:23:37.378Z,14.90
2018-09-19T04:26:05.934Z,14.90
2018-09-19T04:28:34.436Z,14.90
2018-09-19T04:31:02.668Z,14.90
2018-09-19T04:33:30.911Z,14.90
2018-09-19T04:35:59.214Z,14.90
2018-09-19T04:38:29.580Z,14.90
2018-09-19T04:40:57.795Z,14.90
2018-09-19T04:43:26.025Z,14.90
2018-09-19T04:45:54.273Z,14.90
2018-09-19T04:48:22.524Z,14.80
2018-09-19T04:50:50.814Z,14.80
2018-09-19T04:53:19.038Z,14.80
2018-09-19T04:55:47.272Z,14.80
2018-09-19T04:58:15.495Z,14.80
2018-09-19T05:00:43.766Z,14.80
2018-09-19T05:03:11.981Z,14.80
2018-09-19T05:05:40.341Z,14.80
2018-09-19T05:08:08.514Z,14.80
2018-09-19T05:10:36.789Z,14.80
2018-09-19T05:13:05.113Z,14.80
2018-09-19T05:15:33.383Z,14.80
2018-09-19T05:18:01.682Z,14.80
2018-09-19T05:20:29.958Z,14.80
2018-09-19T05:22:58.247Z,14.80
2018-09-19T05:25:26.496Z,14.80
2018-09-19T05:27:54.789Z,14.80
2018-09-19T05:30:23.079Z,14.80
2018-09-19T05:32:51.366Z,14.80
2018-09-19T05:35:19.637Z,14.80
2018-09-19T05:37:47.916Z,14.90
2018-09-19T05:40:16.190Z,14.90
2018-09-19T05:42:44.479Z,14.90
2018-09-19T05:45:12.749Z,15.00
2018-09-19T05:47:41.081Z,15.00
2018-09-19T05:50:09.372Z,15.00
2018-09-19T05:52:37.650Z,15.00
2018-09-19T05:55:05.925Z,15.10
2018-09-19T05:57:34.215Z,15.10
2018-09-19T06:00:02.495Z,15.10
2018-09-19T06:02:30.810Z,15.10
2018-09-19T06:04:59.106Z,15.10
2018-09-19T06:07:27.341Z,15.20
2018-09-19T06:09:55.593Z,15.20
2018-09-19T06:12:23.935Z,15.20
2018-09-19T06:14:52.165Z,15.30
2018-09-19T06:17:20.468Z,15.30
2018-09-19T06:19:49.029Z,15.40
2018-09-19T06:22:17.324Z,15.40
2018-09-19T06:24:45.592Z,15.40
2018-09-19T06:27:13.906Z,15.50
2018-09-19T06:29:42.117Z,15.50
2018-09-19T06:32:10.403Z,15.50
2018-09-19T06:34:38.662Z,15.50
2018-09-19T06:37:07.023Z,15.60
2018-09-19T06:39:35.291Z,15.60
2018-09-19T06:42:03.586Z,15.70
2018-09-19T06:44:31.851Z,15.70
2018-09-19T06:47:00.141Z,15.80
2018-09-19T06:49:28.414Z,15.80
2018-09-19T06:51:56.703Z,15.90
2018-09-19T06:54:24.949Z,16.00
2018-09-19T06:56:53.238Z,16.00
2018-09-19T06:59:21.530Z,16.10
2018-09-19T07:01:49.801Z,16.20
2018-09-19T07:04:18.053Z,16.20
2018-09-19T07:06:46.311Z,16.30
2018-09-19T07:09:14.602Z,16.40
2018-09-19T07:11:42.850Z,16.40
2018-09-19T07:14:11.103Z,16.40
2018-09-19T07:16:39.303Z,16.50
2018-09-19T07:19:07.529Z,16.60
2018-09-19T07:21:35.768Z,16.60
2018-09-19T07:24:03.985Z,16.70
2018-09-19T07:26:32.200Z,16.80
2018-09-19T07:29:00.420Z,16.80
2018-09-19T07:31:28.610Z,16.90
2018-09-19T07:33:56.870Z,17.00
2018-09-19T07:36:25.317Z,17.00
2018-09-19T07:38:53.549Z,17.10
2018-09-19T07:41:21.772Z,17.20
2018-09-19T07:43:50.028Z,17.20
2018-09-19T07:46:18.253Z,17.30
2018-09-19T07:48:46.502Z,17.40
2018-09-19T07:51:14.724Z,17.50
2018-09-19T07:53:42.950Z,17.50
2018-09-19T07:56:11.165Z,17.60
2018-09-19T07:58:39.390Z,17.70
2018-09-19T08:01:07.989Z,17.70
2018-09-19T08:03:36.100Z,17.80
2018-09-19T08:06:04.307Z,17.90
2018-09-19T08:08:32.533Z,18.00
2018-09-19T08:11:00.736Z,18.00
2018-09-19T08:13:28.949Z,18.10
2018-09-19T08:15:57.168Z,18.20
2018-09-19T08:18:25.542Z,18.30
2018-09-19T08:20:53.758Z,18.40
2018-09-19T08:23:22.033Z,18.40
2018-09-19T08:25:50.260Z,18.50
2018-09-19T08:28:18.486Z,18.50
2018-09-19T08:30:46.702Z,18.60
2018-09-19T08:33:14.927Z,18.60
2018-09-19T08:35:43.194Z,18.70
2018-09-19T08:38:12.473Z,18.90
2018-09-19T08:40:40.686Z,19.00
2018-09-19T08:43:08.938Z,19.00
2018-09-19T08:45:37.144Z,19.10
2018-09-19T08:48:05.522Z,19.20
2018-09-19T08:50:33.849Z,19.20
2018-09-19T08:53:02.726Z,19.30
2018-09-19T08:55:31.199Z,19.50
2018-09-19T08:57:59.657Z,19.60
2018-09-19T09:00:28.021Z,19.70
2018-09-19T09:02:56.241Z,19.70
2018-09-19T09:05:24.508Z,19.80
2018-09-19T09:07:52.682Z,19.80
2018-09-19T09:10:20.932Z,19.90
2018-09-19T09:12:49.416Z,20.10
2018-09-19T09:15:17.596Z,20.20
2018-09-19T09:17:45.854Z,20.20
2018-09-19T09:20:14.092Z,20.40
2018-09-19T09:22:42.298Z,20.40
2018-09-19T09:25:10.561Z,20.40
2018-09-19T09:27:38.831Z,20.40
2018-09-19T09:30:07.086Z,20.50
2018-09-19T09:32:35.315Z,20.50
2018-09-19T09:35:03.605Z,20.50
2018-09-19T09:37:31.883Z,20.60
2018-09-19T09:40:00.161Z,20.80
2018-09-19T09:42:28.514Z,20.80
2018-09-19T09:44:56.733Z,20.90
2018-09-19T09:47:24.982Z,21.00
2018-09-19T09:49:53.283Z,21.10
2018-09-19T09:52:21.520Z,21.20
2018-09-19T09:54:49.817Z,21.30
2018-09-19T09:57:18.077Z,21.40
2018-09-19T09:59:46.389Z,21.40
2018-09-19T10:02:14.651Z,21.40
2018-09-19T10:04:42.932Z,21.40
2018-09-19T10:07:11.168Z,21.40
2018-09-19T10:09:39.485Z,21.50
2018-09-19T10:12:07.739Z,21.50
2018-09-19T10:14:38.453Z,21.60
2018-09-19T10:17:06.806Z,21.60
2018-09-19T10:19:35.075Z,21.60
2018-09-19T10:22:03.425Z,21.70
2018-09-19T10:24:31.677Z,21.80
2018-09-19T10:26:59.966Z,21.90
2018-09-19T10:29:28.409Z,21.90
2018-09-19T10:31:56.622Z,22.10
2018-09-19T10:34:24.905Z,22.30
2018-09-19T10:36:53.235Z,22.40
2018-09-19T10:39:21.691Z,22.50
2018-09-19T10:41:50.014Z,22.50
2018-09-19T10:44:21.440Z,22.60
2018-09-19T10:46:49.701Z,22.70
2018-09-19T10:49:20.977Z,22.80
2018-09-19T10:51:50.005Z,22.80
2018-09-19T10:54:18.370Z,22.80
2018-09-19T10:56:48.446Z,22.90
2018-09-19T10:59:16.670Z,22.90
2018-09-19T11:01:44.955Z,23.00
2018-09-19T11:04:13.382Z,23.00
2018-09-19T11:06:41.646Z,23.00
2018-09-19T11:09:11.149Z,23.10
2018-09-19T11:11:39.643Z,23.10
2018-09-19T11:14:10.790Z,23.20
2018-09-19T11:16:39.079Z,23.20
2018-09-19T11:19:07.938Z,23.20
2018-09-19T11:21:36.227Z,23.30
2018-09-19T11:24:04.501Z,23.30
2018-09-19T11:26:33.040Z,23.40
2018-09-19T11:29:01.280Z,23.50
2018-09-19T11:31:29.694Z,23.50
2018-09-19T11:33:58.002Z,23.50
2018-09-19T11:36:26.296Z,23.40
2018-09-19T11:38:54.613Z,23.30
2018-09-19T11:41:22.966Z,23.10
2018-09-19T11:43:51.232Z,23.00
2018-09-19T11:46:20.427Z,23.00
2018-09-19T11:48:48.704Z,23.00
2018-09-19T11:51:16.896Z,23.00
2018-09-19T11:53:45.097Z,23.00
2018-09-19T11:56:24.279Z,22.90
2018-09-19T11:58:52.532Z,23.00
2018-09-19T12:01:21.682Z,23.10
2018-09-19T12:03:51.112Z,23.30
2018-09-19T12:06:20.741Z,23.40
2018-09-19T12:08:50.501Z,23.60
2018-09-19T12:11:19.693Z,23.90
2018-09-19T12:13:48.076Z,24.20
2018-09-19T12:16:16.276Z,24.30
2018-09-19T12:18:44.473Z,24.40
2018-09-19T12:21:12.762Z,24.50
2018-09-19T12:23:41.221Z,24.50
2018-09-19T12:26:09.472Z,24.60
2018-09-19T12:28:37.663Z,24.70
2018-09-19T12:31:06.002Z,24.70
2018-09-19T12:33:34.589Z,24.80
2018-09-19T12:36:02.828Z,24.90
2018-09-19T12:38:31.118Z,24.90
2018-09-19T12:40:59.338Z,25.00
2018-09-19T12:43:27.565Z,25.10
2018-09-19T12:45:55.782Z,25.20
2018-09-19T12:48:25.865Z,25.20
2018-09-19T12:50:54.111Z,25.30
2018-09-19T12:53:23.968Z,25.30
2018-09-19T12:55:53.450Z,25.30
2018-09-19T12:58:21.713Z,25.30
2018-09-19T13:00:50.320Z,25.30
2018-09-19T13:03:18.550Z,25.20
2018-09-19T13:05:46.827Z,25.20
2018-09-19T13:08:15.020Z,25.30
2018-09-19T13:10:43.313Z,25.40
2018-09-19T13:13:11.547Z,25.50
2018-09-19T13:15:39.776Z,25.50
2018-09-19T13:18:08.018Z,25.60
2018-09-19T13:20:36.283Z,25.70
2018-09-19T13:23:04.513Z,25.80
2018-09-19T13:25:32.757Z,25.80
2018-09-19T13:28:00.984Z,25.80
2018-09-19T13:30:29.342Z,26.00
2018-09-19T13:32:57.641Z,26.10
2018-09-19T13:35:25.853Z,26.30
2018-09-19T13:37:54.124Z,26.40
2018-09-19T13:40:22.338Z,26.60
2018-09-19T13:42:50.879Z,26.80
2018-09-19T13:45:19.703Z,26.90
2018-09-19T13:47:48.787Z,27.00
2018-09-19T13:50:28.628Z,27.10
2018-09-19T13:52:57.926Z,27.10
2018-09-19T13:55:27.215Z,27.30
2018-09-19T13:58:09.503Z,27.40
2018-09-19T14:00:38.664Z,27.60
2018-09-19T14:03:08.351Z,27.70
2018-09-19T14:05:38.051Z,27.80
2018-09-19T14:08:07.673Z,27.90
2018-09-19T14:10:40.068Z,28.00
2018-09-19T14:13:09.818Z,28.00
2018-09-19T14:15:40.135Z,28.10
2018-09-19T14:18:10.171Z,28.10
2018-09-19T14:20:41.420Z,28.20
2018-09-19T14:23:10.752Z,28.10
2018-09-19T14:25:42.746Z,28.00
2018-09-19T14:28:12.462Z,28.00
2018-09-19T14:30:42.125Z,28.00
2018-09-19T14:33:11.097Z,27.90
2018-09-19T14:35:41.756Z,28.00
2018-09-19T14:38:12.067Z,28.10
2018-09-19T14:40:41.783Z,28.10
2018-09-19T14:43:11.034Z,28.10
2018-09-19T14:45:40.497Z,28.10
2018-09-19T14:48:09.855Z,28.20
2018-09-19T14:50:39.829Z,28.10
2018-09-19T14:53:09.716Z,28.10
2018-09-19T14:55:39.676Z,28.00
2018-09-19T14:58:09.006Z,28.00
2018-09-19T15:00:37.707Z,28.00
2018-09-19T15:03:07.372Z,28.10
2018-09-19T15:05:36.936Z,28.10
2018-09-19T15:08:06.326Z,28.10
2018-09-19T15:10:34.583Z,28.00
2018-09-19T15:13:03.832Z,27.90
2018-09-19T15:15:33.536Z,27.80
2018-09-19T15:18:03.040Z,27.80
2018-09-19T15:20:33.768Z,27.70
2018-09-19T15:23:03.398Z,27.70
2018-09-19T15:25:32.919Z,27.80
2018-09-19T15:28:02.230Z,27.90
2018-09-19T15:30:32.083Z,27.80
2018-09-19T15:33:01.456Z,27.80
2018-09-19T15:35:30.860Z,27.90
2018-09-19T15:37:59.130Z,27.80
2018-09-19T15:40:28.449Z,27.80
2018-09-19T15:42:58.002Z,27.90
2018-09-19T15:45:27.042Z,27.90
2018-09-19T15:47:56.709Z,27.90
2018-09-19T15:50:25.034Z,28.00
2018-09-19T15:52:53.702Z,28.00
2018-09-19T15:55:23.427Z,28.10
2018-09-19T15:57:53.207Z,28.10
2018-09-19T16:00:22.564Z,28.10
2018-09-19T16:02:51.853Z,28.10
2018-09-19T16:05:21.934Z,28.00
2018-09-19T16:07:51.854Z,27.80
2018-09-19T16:10:21.216Z,27.70
2018-09-19T16:12:57.773Z,27.50
2018-09-19T16:15:27.782Z,27.20
2018-09-19T16:17:58.923Z,26.90
2018-09-19T16:20:31.221Z,26.70
2018-09-19T16:23:00.470Z,26.50
2018-09-19T16:25:32.271Z,26.20
2018-09-19T16:28:01.927Z,26.00
2018-09-19T16:30:34.012Z,25.80
2018-09-19T16:33:03.587Z,25.70
2018-09-19T16:35:34.139Z,25.60
2018-09-19T16:38:02.589Z,25.50
2018-09-19T16:40:30.812Z,25.40
2018-09-19T16:42:59.109Z,25.30
2018-09-19T16:45:27.905Z,25.20
2018-09-19T16:47:56.115Z,25.00
2018-09-19T16:50:24.535Z,24.90
2018-09-19T16:52:52.801Z,24.70
2018-09-19T16:55:21.248Z,24.60
2018-09-19T16:57:49.465Z,24.50
2018-09-19T17:00:17.711Z,24.30
2018-09-19T17:02:45.921Z,24.20
2018-09-19T17:05:14.891Z,24.00
2018-09-19T17:07:43.529Z,23.90
2018-09-19T17:10:11.739Z,23.70
2018-09-19T17:12:40.242Z,23.60
2018-09-19T17:15:08.504Z,23.50
2018-09-19T17:17:36.837Z,23.40
2018-09-19T17:20:05.992Z,23.20
2018-09-19T17:22:36.074Z,23.10
2018-09-19T17:25:04.371Z,23.00
2018-09-19T17:27:32.640Z,22.90
2018-09-19T17:30:00.897Z,22.80
2018-09-19T17:32:29.117Z,22.70
2018-09-19T17:34:57.362Z,22.60
2018-09-19T17:37:25.684Z,22.50
2018-09-19T17:39:53.889Z,22.40
2018-09-19T17:42:22.113Z,22.30
2018-09-19T17:44:50.353Z,22.20
2018-09-19T17:47:18.977Z,22.20
2018-09-19T17:49:47.258Z,22.10
2018-09-19T17:52:15.404Z,22.00
2018-09-19T17:54:44.892Z,22.00
2018-09-19T17:57:13.192Z,21.90
2018-09-19T17:59:41.446Z,21.80
2018-09-19T18:02:09.672Z,21.70
2018-09-19T18:04:38.198Z,21.60
2018-09-19T18:07:07.248Z,21.50
2018-09-19T18:09:35.636Z,21.40
2018-09-19T18:12:04.125Z,21.30
2018-09-19T18:14:32.357Z,21.30
2018-09-19T18:17:01.138Z,21.20
2018-09-19T18:19:29.466Z,21.20
2018-09-19T18:21:57.921Z,21.10
2018-09-19T18:24:26.604Z,21.10
2018-09-19T18:26:55.139Z,21.00
2018-09-19T18:29:23.894Z,20.90
2018-09-19T18:31:52.178Z,20.90
2018-09-19T18:34:20.974Z,20.80
2018-09-19T18:36:49.622Z,20.80
2018-09-19T18:39:18.053Z,20.70
2018-09-19T18:41:46.785Z,20.70
2018-09-19T18:44:15.002Z,20.60
2018-09-19T18:46:44.103Z,20.60
2018-09-19T18:49:12.935Z,20.50
2018-09-19T18:51:41.197Z,20.50
2018-09-19T18:54:09.779Z,20.40
2018-09-19T18:56:39.122Z,20.30
2018-09-19T18:59:07.643Z,20.30
2018-09-19T19:01:35.944Z,20.30
2018-09-19T19:04:04.660Z,20.20
2018-09-19T19:06:33.787Z,20.20
2018-09-19T19:09:02.472Z,20.10
2018-09-19T19:11:30.756Z,20.10
2018-09-19T19:14:00.060Z,20.00
2018-09-19T19:16:28.718Z,19.90
2018-09-19T19:18:57.142Z,19.90
2018-09-19T19:21:25.717Z,19.90
2018-09-19T19:23:54.292Z,19.80
2018-09-19T19:26:23.079Z,19.80
2018-09-19T19:28:51.456Z,19.80
2018-09-19T19:31:20.744Z,19.70
2018-09-19T19:33:49.576Z,19.70
2018-09-19T19:36:18.616Z,19.70
2018-09-19T19:38:46.860Z,19.60
2018-09-19T19:41:15.143Z,19.60
2018-09-19T19:43:43.476Z,19.60
2018-09-19T19:46:11.918Z,19.50
2018-09-19T19:48:40.575Z,19.50
2018-09-19T19:51:08.803Z,19.40
2018-09-19T19:53:37.054Z,19.40
2018-09-19T19:56:05.324Z,19.30
2018-09-19T19:58:33.535Z,19.30
2018-09-19T20:01:01.788Z,19.20
2018-09-19T20:03:30.094Z,19.20
2018-09-19T20:05:58.324Z,19.20
2018-09-19T20:08:28.042Z,19.20
2018-09-19T20:10:56.373Z,19.10
2018-09-19T20:13:24.600Z,19.10
2018-09-19T20:15:52.822Z,19.10
2018-09-19T20:18:21.141Z,19.00
2018-09-19T20:20:49.437Z,19.00
2018-09-19T20:23:17.745Z,19.00
2018-09-19T20:25:45.985Z,18.90
2018-09-19T20:28:14.266Z,18.90
2018-09-19T20:30:42.590Z,18.90
2018-09-19T20:33:10.942Z,18.80
2018-09-19T20:35:39.233Z,18.80
2018-09-19T20:38:07.507Z,18.80
2018-09-19T20:40:35.747Z,18.70
2018-09-19T20:43:04.024Z,18.70
2018-09-19T20:45:32.292Z,18.70
2018-09-19T20:48:00.550Z,18.70
2018-09-19T20:50:28.758Z,18.60
2018-09-19T20:52:56.999Z,18.60
2018-09-19T20:55:25.287Z,18.60
2018-09-19T20:57:53.529Z,18.60
2018-09-19T21:00:21.742Z,18.60
2018-09-19T21:02:50.025Z,18.60
2018-09-19T21:05:18.255Z,18.60
2018-09-19T21:07:46.510Z,18.50
2018-09-19T21:10:14.745Z,18.50
2018-09-19T21:12:43.006Z,18.50
2018-09-19T21:15:11.225Z,18.50
2018-09-19T21:17:39.499Z,18.50
2018-09-19T21:20:07.713Z,18.40
2018-09-19T21:22:35.992Z,18.40
2018-09-19T21:25:04.239Z,18.40
2018-09-19T21:27:32.496Z,18.40
2018-09-19T21:30:00.833Z,18.40
2018-09-19T21:32:29.082Z,18.40
2018-09-19T21:34:57.334Z,18.30
2018-09-19T21:37:25.601Z,18.40
2018-09-19T21:39:53.828Z,18.40
2018-09-19T21:42:22.132Z,18.40
2018-09-19T21:44:50.406Z,18.40
2018-09-19T21:47:18.772Z,18.30
2018-09-19T21:49:47.042Z,18.30
2018-09-19T21:52:15.345Z,18.30
2018-09-19T21:54:43.622Z,18.30
2018-09-19T21:57:11.971Z,18.30
2018-09-19T21:59:40.273Z,18.30
2018-09-19T22:02:08.574Z,18.30
2018-09-19T22:04:36.869Z,18.30
2018-09-19T22:07:05.173Z,18.30
2018-09-19T22:09:33.480Z,18.20
2018-09-19T22:12:01.836Z,18.20
2018-09-19T22:14:30.114Z,18.20
2018-09-19T22:16:58.381Z,18.20
2018-09-19T22:19:26.666Z,18.20
2018-09-19T22:21:54.886Z,18.20
2018-09-19T22:24:23.181Z,18.20
2018-09-19T22:26:51.464Z,18.20
2018-09-19T22:29:19.758Z,18.20
2018-09-19T22:31:48.012Z,18.20
2018-09-19T22:34:16.954Z,18.20
2018-09-19T22:36:45.199Z,18.20
2018-09-19T22:39:13.523Z,18.10
2018-09-19T22:41:41.801Z,18.00
2018-09-19T22:44:10.083Z,18.00
2018-09-19T22:46:38.396Z,17.90
2018-09-19T22:49:06.664Z,17.90
2018-09-19T22:51:34.970Z,17.80
2018-09-19T22:54:03.258Z,17.80
2018-09-19T22:56:31.498Z,17.80
2018-09-19T22:58:59.766Z,17.80
2018-09-19T23:01:28.029Z,17.80
2018-09-19T23:03:56.288Z,17.70
2018-09-19T23:06:24.522Z,17.70
2018-09-19T23:08:52.790Z,17.70
2018-09-19T23:11:21.037Z,17.70
2018-09-19T23:13:49.297Z,17.70
2018-09-19T23:16:17.542Z,17.70
2018-09-19T23:18:45.782Z,17.70
2018-09-19T23:21:13.981Z,17.60
2018-09-19T23:23:42.207Z,17.60
2018-09-19T23:26:10.422Z,17.60
2018-09-19T23:28:38.658Z,17.60
2018-09-19T23:31:06.864Z,17.60
2018-09-19T23:33:35.106Z,17.60
2018-09-19T23:36:03.401Z,17.60
2018-09-19T23:38:32.624Z,17.60
2018-09-19T23:41:00.843Z,17.60
2018-09-19T23:43:29.060Z,17.60
2018-09-19T23:45:57.318Z,17.60
2018-09-19T23:48:25.649Z,17.60
2018-09-19T23:50:53.933Z,17.60
2018-09-19T23:53:22.204Z,17.60
2018-09-19T23:55:50.459Z,17.50
2018-09-19T23:58:18.712Z,17.50
